sensor_id;sensor_type;location;lat;lon;timestamp;P1;durP1;ratioP1;P2;durP2;ratioP2
69511;SDS011;70777;52.034;4.644;2024-01-30T00:02:15;26.42;;;14.20;;
69511;SDS011;70777;52.034;4.644;2024-01-30T00:04:42;24.98;;;12.93;;
69511;SDS011;70777;52.034;4.644;2024-01-30T00:07:07;25.67;;;13.65;;
69511;SDS011;70777;52.034;4.644;2024-01-30T00:09:33;24.63;;;14.68;;
69511;SDS011;70777;52.034;4.644;2024-01-30T00:11:58;20.92;;;13.18;;
69511;SDS011;70777;52.034;4.644;2024-01-30T00:14:24;25.33;;;13.80;;
69511;SDS011;70777;52.034;4.644;2024-01-30T00:16:50;25.55;;;14.32;;
69511;SDS011;70777;52.034;4.644;2024-01-30T00:19:15;25.15;;;14.02;;
69511;SDS011;70777;52.034;4.644;2024-01-30T00:21:41;20.92;;;13.07;;
69511;SDS011;70777;52.034;4.644;2024-01-30T00:24:06;27.65;;;13.88;;
69511;SDS011;70777;52.034;4.644;2024-01-30T00:26:32;22.00;;;14.05;;
69511;SDS011;70777;52.034;4.644;2024-01-30T00:28:57;24.75;;;14.50;;
69511;SDS011;70777;52.034;4.644;2024-01-30T00:31:29;28.73;;;14.27;;
69511;SDS011;70777;52.034;4.644;2024-01-30T00:33:55;27.60;;;15.10;;
69511;SDS011;70777;52.034;4.644;2024-01-30T00:36:20;24.58;;;13.95;;
69511;SDS011;70777;52.034;4.644;2024-01-30T00:38:46;25.70;;;14.10;;
69511;SDS011;70777;52.034;4.644;2024-01-30T00:41:12;26.95;;;14.77;;
69511;SDS011;70777;52.034;4.644;2024-01-30T00:43:37;30.00;;;15.85;;
69511;SDS011;70777;52.034;4.644;2024-01-30T00:46:03;30.67;;;14.60;;
69511;SDS011;70777;52.034;4.644;2024-01-30T00:48:28;26.27;;;13.68;;
69511;SDS011;70777;52.034;4.644;2024-01-30T00:50:54;23.85;;;13.23;;
69511;SDS011;70777;52.034;4.644;2024-01-30T00:53:19;27.65;;;13.68;;
69511;SDS011;70777;52.034;4.644;2024-01-30T00:55:45;22.63;;;12.70;;
69511;SDS011;70777;52.034;4.644;2024-01-30T00:58:10;27.77;;;14.20;;
69511;SDS011;70777;52.034;4.644;2024-01-30T01:00:35;26.75;;;13.48;;
69511;SDS011;70777;52.034;4.644;2024-01-30T01:03:02;25.13;;;13.82;;
69511;SDS011;70777;52.034;4.644;2024-01-30T01:05:27;25.98;;;13.25;;
69511;SDS011;70777;52.034;4.644;2024-01-30T01:07:53;27.67;;;13.75;;
69511;SDS011;70777;52.034;4.644;2024-01-30T01:10:18;26.17;;;14.65;;
69511;SDS011;70777;52.034;4.644;2024-01-30T01:12:44;21.33;;;13.13;;
69511;SDS011;70777;52.034;4.644;2024-01-30T01:15:12;28.17;;;14.02;;
69511;SDS011;70777;52.034;4.644;2024-01-30T01:17:38;26.05;;;14.35;;
69511;SDS011;70777;52.034;4.644;2024-01-30T01:20:04;21.42;;;12.25;;
69511;SDS011;70777;52.034;4.644;2024-01-30T01:24:57;24.33;;;13.30;;
69511;SDS011;70777;52.034;4.644;2024-01-30T01:27:22;25.35;;;12.88;;
69511;SDS011;70777;52.034;4.644;2024-01-30T01:29:48;22.88;;;13.15;;
69511;SDS011;70777;52.034;4.644;2024-01-30T01:32:14;23.40;;;12.53;;
69511;SDS011;70777;52.034;4.644;2024-01-30T01:34:40;21.63;;;12.40;;
69511;SDS011;70777;52.034;4.644;2024-01-30T01:37:05;20.10;;;12.60;;
69511;SDS011;70777;52.034;4.644;2024-01-30T01:39:32;24.63;;;13.82;;
69511;SDS011;70777;52.034;4.644;2024-01-30T01:41:57;20.98;;;12.88;;
69511;SDS011;70777;52.034;4.644;2024-01-30T01:44:22;20.67;;;12.65;;
69511;SDS011;70777;52.034;4.644;2024-01-30T01:46:48;24.70;;;13.63;;
69511;SDS011;70777;52.034;4.644;2024-01-30T01:49:13;25.10;;;14.18;;
69511;SDS011;70777;52.034;4.644;2024-01-30T01:51:39;24.55;;;13.52;;
69511;SDS011;70777;52.034;4.644;2024-01-30T01:54:06;27.83;;;14.85;;
69511;SDS011;70777;52.034;4.644;2024-01-30T01:56:32;28.05;;;14.68;;
69511;SDS011;70777;52.034;4.644;2024-01-30T01:58:59;23.70;;;13.18;;
69511;SDS011;70777;52.034;4.644;2024-01-30T02:03:51;22.85;;;13.30;;
69511;SDS011;70777;52.034;4.644;2024-01-30T02:06:16;27.98;;;14.60;;
69511;SDS011;70777;52.034;4.644;2024-01-30T02:08:43;24.33;;;12.77;;
69511;SDS011;70777;52.034;4.644;2024-01-30T02:11:08;27.70;;;14.73;;
69511;SDS011;70777;52.034;4.644;2024-01-30T02:13:35;28.70;;;13.60;;
69511;SDS011;70777;52.034;4.644;2024-01-30T02:16:01;24.85;;;13.85;;
69511;SDS011;70777;52.034;4.644;2024-01-30T02:18:26;24.77;;;13.25;;
69511;SDS011;70777;52.034;4.644;2024-01-30T02:20:53;26.17;;;13.48;;
69511;SDS011;70777;52.034;4.644;2024-01-30T02:23:19;23.83;;;13.05;;
69511;SDS011;70777;52.034;4.644;2024-01-30T02:25:45;21.58;;;12.40;;
69511;SDS011;70777;52.034;4.644;2024-01-30T02:28:11;20.33;;;12.02;;
69511;SDS011;70777;52.034;4.644;2024-01-30T02:30:44;24.75;;;12.50;;
69511;SDS011;70777;52.034;4.644;2024-01-30T02:33:10;22.13;;;13.18;;
69511;SDS011;70777;52.034;4.644;2024-01-30T02:35:35;22.70;;;12.02;;
69511;SDS011;70777;52.034;4.644;2024-01-30T02:38:00;22.67;;;11.60;;
69511;SDS011;70777;52.034;4.644;2024-01-30T02:40:26;20.67;;;11.55;;
69511;SDS011;70777;52.034;4.644;2024-01-30T02:42:52;25.02;;;12.13;;
69511;SDS011;70777;52.034;4.644;2024-01-30T02:45:18;21.65;;;12.77;;
69511;SDS011;70777;52.034;4.644;2024-01-30T02:47:43;24.83;;;11.95;;
69511;SDS011;70777;52.034;4.644;2024-01-30T02:50:09;23.58;;;12.18;;
69511;SDS011;70777;52.034;4.644;2024-01-30T02:52:35;23.55;;;11.85;;
69511;SDS011;70777;52.034;4.644;2024-01-30T02:55:00;25.15;;;12.55;;
69511;SDS011;70777;52.034;4.644;2024-01-30T02:57:26;20.80;;;12.35;;
69511;SDS011;70777;52.034;4.644;2024-01-30T02:59:52;18.67;;;11.73;;
69511;SDS011;70777;52.034;4.644;2024-01-30T03:02:18;21.88;;;11.23;;
69511;SDS011;70777;52.034;4.644;2024-01-30T03:04:43;20.17;;;12.05;;
69511;SDS011;70777;52.034;4.644;2024-01-30T03:07:09;22.85;;;11.63;;
69511;SDS011;70777;52.034;4.644;2024-01-30T03:09:34;21.95;;;12.10;;
69511;SDS011;70777;52.034;4.644;2024-01-30T03:12:00;21.02;;;12.02;;
69511;SDS011;70777;52.034;4.644;2024-01-30T03:14:26;21.38;;;12.35;;
69511;SDS011;70777;52.034;4.644;2024-01-30T03:16:51;25.42;;;12.18;;
69511;SDS011;70777;52.034;4.644;2024-01-30T03:19:16;17.58;;;11.43;;
69511;SDS011;70777;52.034;4.644;2024-01-30T03:21:42;19.02;;;12.00;;
69511;SDS011;70777;52.034;4.644;2024-01-30T03:24:07;20.17;;;10.93;;
69511;SDS011;70777;52.034;4.644;2024-01-30T03:26:32;22.80;;;11.68;;
69511;SDS011;70777;52.034;4.644;2024-01-30T03:28:58;19.65;;;12.15;;
69511;SDS011;70777;52.034;4.644;2024-01-30T03:31:23;21.88;;;11.48;;
69511;SDS011;70777;52.034;4.644;2024-01-30T03:33:49;16.55;;;10.48;;
69511;SDS011;70777;52.034;4.644;2024-01-30T03:36:15;19.67;;;10.90;;
69511;SDS011;70777;52.034;4.644;2024-01-30T03:38:40;22.15;;;11.02;;
69511;SDS011;70777;52.034;4.644;2024-01-30T03:41:09;20.63;;;12.43;;
69511;SDS011;70777;52.034;4.644;2024-01-30T03:43:35;17.52;;;10.73;;
69511;SDS011;70777;52.034;4.644;2024-01-30T03:46:01;18.20;;;10.90;;
69511;SDS011;70777;52.034;4.644;2024-01-30T03:48:27;20.83;;;11.98;;
69511;SDS011;70777;52.034;4.644;2024-01-30T03:50:53;19.92;;;10.65;;
69511;SDS011;70777;52.034;4.644;2024-01-30T03:53:18;17.48;;;10.75;;
69511;SDS011;70777;52.034;4.644;2024-01-30T03:55:44;20.58;;;11.27;;
69511;SDS011;70777;52.034;4.644;2024-01-30T03:58:09;20.73;;;11.15;;
69511;SDS011;70777;52.034;4.644;2024-01-30T04:00:34;21.42;;;11.15;;
69511;SDS011;70777;52.034;4.644;2024-01-30T04:03:00;16.92;;;10.07;;
69511;SDS011;70777;52.034;4.644;2024-01-30T04:05:25;19.77;;;10.68;;
69511;SDS011;70777;52.034;4.644;2024-01-30T04:07:51;20.20;;;10.30;;
69511;SDS011;70777;52.034;4.644;2024-01-30T04:10:16;18.70;;;10.13;;
69511;SDS011;70777;52.034;4.644;2024-01-30T04:12:41;20.27;;;10.45;;
69511;SDS011;70777;52.034;4.644;2024-01-30T04:15:07;20.75;;;10.63;;
69511;SDS011;70777;52.034;4.644;2024-01-30T04:17:33;19.20;;;10.10;;
69511;SDS011;70777;52.034;4.644;2024-01-30T04:19:58;20.98;;;10.73;;
69511;SDS011;70777;52.034;4.644;2024-01-30T04:22:24;21.15;;;10.50;;
69511;SDS011;70777;52.034;4.644;2024-01-30T04:24:49;17.67;;;9.93;;
69511;SDS011;70777;52.034;4.644;2024-01-30T04:27:15;17.70;;;10.77;;
69511;SDS011;70777;52.034;4.644;2024-01-30T04:29:40;19.33;;;10.23;;
69511;SDS011;70777;52.034;4.644;2024-01-30T04:32:05;20.88;;;9.82;;
69511;SDS011;70777;52.034;4.644;2024-01-30T04:34:31;16.20;;;9.32;;
69511;SDS011;70777;52.034;4.644;2024-01-30T04:36:56;18.20;;;9.50;;
69511;SDS011;70777;52.034;4.644;2024-01-30T04:39:22;17.55;;;9.63;;
69511;SDS011;70777;52.034;4.644;2024-01-30T04:41:47;17.55;;;9.80;;
69511;SDS011;70777;52.034;4.644;2024-01-30T04:44:13;19.13;;;9.88;;
69511;SDS011;70777;52.034;4.644;2024-01-30T04:46:39;17.70;;;9.50;;
69511;SDS011;70777;52.034;4.644;2024-01-30T04:49:04;17.50;;;9.65;;
69511;SDS011;70777;52.034;4.644;2024-01-30T04:51:30;17.80;;;10.05;;
69511;SDS011;70777;52.034;4.644;2024-01-30T04:53:55;18.60;;;10.63;;
69511;SDS011;70777;52.034;4.644;2024-01-30T04:56:21;20.23;;;11.20;;
69511;SDS011;70777;52.034;4.644;2024-01-30T04:58:46;23.55;;;10.82;;
69511;SDS011;70777;52.034;4.644;2024-01-30T05:01:18;19.77;;;10.48;;
69511;SDS011;70777;52.034;4.644;2024-01-30T05:03:44;20.65;;;11.25;;
69511;SDS011;70777;52.034;4.644;2024-01-30T05:06:09;23.17;;;11.20;;
69511;SDS011;70777;52.034;4.644;2024-01-30T05:08:35;20.77;;;10.07;;
69511;SDS011;70777;52.034;4.644;2024-01-30T05:11:04;17.25;;;10.48;;
69511;SDS011;70777;52.034;4.644;2024-01-30T05:13:30;17.10;;;10.20;;
69511;SDS011;70777;52.034;4.644;2024-01-30T05:15:56;21.33;;;9.77;;
69511;SDS011;70777;52.034;4.644;2024-01-30T05:18:21;20.10;;;9.38;;
69511;SDS011;70777;52.034;4.644;2024-01-30T05:20:47;14.40;;;9.07;;
69511;SDS011;70777;52.034;4.644;2024-01-30T05:23:12;16.65;;;10.00;;
69511;SDS011;70777;52.034;4.644;2024-01-30T05:25:37;19.80;;;10.30;;
69511;SDS011;70777;52.034;4.644;2024-01-30T05:28:03;16.02;;;9.32;;
69511;SDS011;70777;52.034;4.644;2024-01-30T05:30:28;18.08;;;9.88;;
69511;SDS011;70777;52.034;4.644;2024-01-30T05:32:54;17.23;;;9.77;;
69511;SDS011;70777;52.034;4.644;2024-01-30T05:35:19;17.23;;;9.85;;
69511;SDS011;70777;52.034;4.644;2024-01-30T05:37:47;16.58;;;9.68;;
69511;SDS011;70777;52.034;4.644;2024-01-30T05:40:13;18.48;;;10.38;;
69511;SDS011;70777;52.034;4.644;2024-01-30T05:42:39;20.52;;;9.98;;
69511;SDS011;70777;52.034;4.644;2024-01-30T05:45:04;15.85;;;9.73;;
69511;SDS011;70777;52.034;4.644;2024-01-30T05:47:30;17.27;;;9.95;;
69511;SDS011;70777;52.034;4.644;2024-01-30T05:49:56;17.73;;;10.77;;
69511;SDS011;70777;52.034;4.644;2024-01-30T05:52:21;19.60;;;10.02;;
69511;SDS011;70777;52.034;4.644;2024-01-30T05:54:46;19.08;;;10.20;;
69511;SDS011;70777;52.034;4.644;2024-01-30T05:57:12;19.70;;;10.05;;
69511;SDS011;70777;52.034;4.644;2024-01-30T05:59:37;15.50;;;9.75;;
69511;SDS011;70777;52.034;4.644;2024-01-30T06:02:03;16.88;;;9.50;;
69511;SDS011;70777;52.034;4.644;2024-01-30T06:04:28;17.00;;;9.40;;
69511;SDS011;70777;52.034;4.644;2024-01-30T06:06:54;22.90;;;9.52;;
69511;SDS011;70777;52.034;4.644;2024-01-30T06:09:19;16.42;;;8.65;;
69511;SDS011;70777;52.034;4.644;2024-01-30T06:11:45;16.35;;;9.32;;
69511;SDS011;70777;52.034;4.644;2024-01-30T06:14:10;16.17;;;9.65;;
69511;SDS011;70777;52.034;4.644;2024-01-30T06:16:35;15.38;;;9.77;;
69511;SDS011;70777;52.034;4.644;2024-01-30T06:19:01;15.38;;;8.98;;
69511;SDS011;70777;52.034;4.644;2024-01-30T06:21:26;15.35;;;9.32;;
69511;SDS011;70777;52.034;4.644;2024-01-30T06:23:52;16.35;;;9.35;;
69511;SDS011;70777;52.034;4.644;2024-01-30T06:26:17;17.02;;;9.30;;
69511;SDS011;70777;52.034;4.644;2024-01-30T06:28:42;16.67;;;9.13;;
69511;SDS011;70777;52.034;4.644;2024-01-30T06:31:09;16.60;;;9.20;;
69511;SDS011;70777;52.034;4.644;2024-01-30T06:33:34;18.58;;;10.32;;
69511;SDS011;70777;52.034;4.644;2024-01-30T06:36:00;13.85;;;9.23;;
69511;SDS011;70777;52.034;4.644;2024-01-30T06:38:25;15.18;;;9.32;;
69511;SDS011;70777;52.034;4.644;2024-01-30T06:40:51;15.60;;;9.48;;
69511;SDS011;70777;52.034;4.644;2024-01-30T06:43:16;20.88;;;9.75;;
69511;SDS011;70777;52.034;4.644;2024-01-30T06:45:41;17.25;;;9.57;;
69511;SDS011;70777;52.034;4.644;2024-01-30T06:48:07;13.98;;;8.73;;
69511;SDS011;70777;52.034;4.644;2024-01-30T06:50:33;15.30;;;8.85;;
69511;SDS011;70777;52.034;4.644;2024-01-30T06:52:59;20.17;;;9.50;;
69511;SDS011;70777;52.034;4.644;2024-01-30T06:55:24;18.05;;;10.23;;
69511;SDS011;70777;52.034;4.644;2024-01-30T06:57:49;15.55;;;9.75;;
69511;SDS011;70777;52.034;4.644;2024-01-30T07:00:15;16.83;;;9.38;;
69511;SDS011;70777;52.034;4.644;2024-01-30T07:02:41;15.43;;;9.18;;
69511;SDS011;70777;52.034;4.644;2024-01-30T07:05:07;17.10;;;8.90;;
69511;SDS011;70777;52.034;4.644;2024-01-30T07:07:33;16.45;;;8.85;;
69511;SDS011;70777;52.034;4.644;2024-01-30T07:09:58;18.98;;;9.65;;
69511;SDS011;70777;52.034;4.644;2024-01-30T07:12:23;16.52;;;8.95;;
69511;SDS011;70777;52.034;4.644;2024-01-30T07:14:50;18.80;;;9.15;;
69511;SDS011;70777;52.034;4.644;2024-01-30T07:17:16;14.45;;;8.82;;
69511;SDS011;70777;52.034;4.644;2024-01-30T07:19:42;16.08;;;8.63;;
69511;SDS011;70777;52.034;4.644;2024-01-30T07:22:08;17.00;;;8.70;;
69511;SDS011;70777;52.034;4.644;2024-01-30T07:24:33;17.67;;;9.02;;
69511;SDS011;70777;52.034;4.644;2024-01-30T07:26:58;14.50;;;8.30;;
69511;SDS011;70777;52.034;4.644;2024-01-30T07:29:24;18.50;;;9.10;;
69511;SDS011;70777;52.034;4.644;2024-01-30T07:31:49;14.35;;;8.63;;
69511;SDS011;70777;52.034;4.644;2024-01-30T07:34:16;21.02;;;8.88;;
69511;SDS011;70777;52.034;4.644;2024-01-30T07:36:41;15.93;;;7.65;;
69511;SDS011;70777;52.034;4.644;2024-01-30T07:39:07;18.20;;;9.15;;
69511;SDS011;70777;52.034;4.644;2024-01-30T07:41:32;17.17;;;9.43;;
69511;SDS011;70777;52.034;4.644;2024-01-30T07:43:58;17.25;;;7.88;;
69511;SDS011;70777;52.034;4.644;2024-01-30T07:46:23;18.83;;;8.63;;
69511;SDS011;70777;52.034;4.644;2024-01-30T07:48:48;14.77;;;7.55;;
69511;SDS011;70777;52.034;4.644;2024-01-30T07:51:14;17.63;;;8.48;;
69511;SDS011;70777;52.034;4.644;2024-01-30T07:53:42;17.13;;;8.80;;
69511;SDS011;70777;52.034;4.644;2024-01-30T07:56:08;15.85;;;7.63;;
69511;SDS011;70777;52.034;4.644;2024-01-30T07:58:33;15.63;;;7.25;;
69511;SDS011;70777;52.034;4.644;2024-01-30T08:00:58;20.73;;;8.68;;
69511;SDS011;70777;52.034;4.644;2024-01-30T08:03:25;21.55;;;8.90;;
69511;SDS011;70777;52.034;4.644;2024-01-30T08:05:51;16.27;;;7.60;;
69511;SDS011;70777;52.034;4.644;2024-01-30T08:08:16;14.57;;;7.88;;
69511;SDS011;70777;52.034;4.644;2024-01-30T08:10:42;18.60;;;7.85;;
69511;SDS011;70777;52.034;4.644;2024-01-30T08:13:07;14.38;;;8.13;;
69511;SDS011;70777;52.034;4.644;2024-01-30T08:15:34;20.15;;;7.97;;
69511;SDS011;70777;52.034;4.644;2024-01-30T08:17:59;16.48;;;7.95;;
69511;SDS011;70777;52.034;4.644;2024-01-30T08:20:25;18.75;;;8.27;;
69511;SDS011;70777;52.034;4.644;2024-01-30T08:22:50;15.35;;;8.23;;
69511;SDS011;70777;52.034;4.644;2024-01-30T08:25:16;13.52;;;7.43;;
69511;SDS011;70777;52.034;4.644;2024-01-30T08:27:41;13.75;;;8.07;;
69511;SDS011;70777;52.034;4.644;2024-01-30T08:30:07;22.25;;;8.30;;
69511;SDS011;70777;52.034;4.644;2024-01-30T08:32:33;15.30;;;7.65;;
69511;SDS011;70777;52.034;4.644;2024-01-30T08:34:59;17.25;;;7.80;;
69511;SDS011;70777;52.034;4.644;2024-01-30T08:37:24;19.42;;;8.10;;
69511;SDS011;70777;52.034;4.644;2024-01-30T08:39:50;18.45;;;7.72;;
69511;SDS011;70777;52.034;4.644;2024-01-30T08:42:15;22.25;;;8.65;;
69511;SDS011;70777;52.034;4.644;2024-01-30T08:44:43;17.25;;;8.20;;
69511;SDS011;70777;52.034;4.644;2024-01-30T08:47:08;13.43;;;7.95;;
69511;SDS011;70777;52.034;4.644;2024-01-30T08:49:34;16.83;;;7.82;;
69511;SDS011;70777;52.034;4.644;2024-01-30T08:51:59;16.63;;;8.35;;
69511;SDS011;70777;52.034;4.644;2024-01-30T08:54:25;15.80;;;7.47;;
69511;SDS011;70777;52.034;4.644;2024-01-30T08:56:50;16.02;;;7.35;;
69511;SDS011;70777;52.034;4.644;2024-01-30T08:59:18;17.30;;;8.25;;
69511;SDS011;70777;52.034;4.644;2024-01-30T09:01:44;18.02;;;7.40;;
69511;SDS011;70777;52.034;4.644;2024-01-30T09:04:09;12.50;;;7.45;;
69511;SDS011;70777;52.034;4.644;2024-01-30T09:06:34;15.40;;;7.53;;
69511;SDS011;70777;52.034;4.644;2024-01-30T09:09:00;13.40;;;7.57;;
69511;SDS011;70777;52.034;4.644;2024-01-30T09:11:26;14.50;;;7.65;;
69511;SDS011;70777;52.034;4.644;2024-01-30T09:13:51;16.60;;;8.27;;
69511;SDS011;70777;52.034;4.644;2024-01-30T09:16:16;14.25;;;8.15;;
69511;SDS011;70777;52.034;4.644;2024-01-30T09:18:42;18.00;;;8.32;;
69511;SDS011;70777;52.034;4.644;2024-01-30T09:21:07;17.48;;;7.93;;
69511;SDS011;70777;52.034;4.644;2024-01-30T09:23:33;17.35;;;7.78;;
69511;SDS011;70777;52.034;4.644;2024-01-30T09:25:58;16.48;;;8.10;;
69511;SDS011;70777;52.034;4.644;2024-01-30T09:28:24;17.80;;;8.45;;
69511;SDS011;70777;52.034;4.644;2024-01-30T09:30:49;18.55;;;8.10;;
69511;SDS011;70777;52.034;4.644;2024-01-30T09:33:15;15.98;;;7.90;;
69511;SDS011;70777;52.034;4.644;2024-01-30T09:35:40;11.07;;;6.78;;
69511;SDS011;70777;52.034;4.644;2024-01-30T09:38:05;15.82;;;7.78;;
69511;SDS011;70777;52.034;4.644;2024-01-30T09:40:31;12.13;;;8.07;;
69511;SDS011;70777;52.034;4.644;2024-01-30T09:42:57;19.65;;;7.38;;
69511;SDS011;70777;52.034;4.644;2024-01-30T09:45:25;16.58;;;8.07;;
69511;SDS011;70777;52.034;4.644;2024-01-30T09:47:51;17.67;;;7.47;;
69511;SDS011;70777;52.034;4.644;2024-01-30T09:50:16;15.18;;;7.78;;
69511;SDS011;70777;52.034;4.644;2024-01-30T09:52:43;16.15;;;8.60;;
69511;SDS011;70777;52.034;4.644;2024-01-30T09:55:09;15.43;;;4.85;;
69511;SDS011;70777;52.034;4.644;2024-01-30T09:57:35;10.77;;;4.18;;
69511;SDS011;70777;52.034;4.644;2024-01-30T10:00:01;16.20;;;4.80;;
69511;SDS011;70777;52.034;4.644;2024-01-30T10:02:32;14.02;;;5.40;;
69511;SDS011;70777;52.034;4.644;2024-01-30T10:04:58;14.32;;;5.28;;
69511;SDS011;70777;52.034;4.644;2024-01-30T10:07:24;10.57;;;4.13;;
69511;SDS011;70777;52.034;4.644;2024-01-30T10:09:49;10.60;;;3.47;;
69511;SDS011;70777;52.034;4.644;2024-01-30T10:12:15;9.60;;;3.53;;
69511;SDS011;70777;52.034;4.644;2024-01-30T10:14:41;15.50;;;3.63;;
69511;SDS011;70777;52.034;4.644;2024-01-30T10:17:10;9.88;;;3.42;;
69511;SDS011;70777;52.034;4.644;2024-01-30T10:19:36;5.70;;;2.67;;
69511;SDS011;70777;52.034;4.644;2024-01-30T10:22:05;7.07;;;2.33;;
69511;SDS011;70777;52.034;4.644;2024-01-30T10:24:31;6.90;;;2.78;;
69511;SDS011;70777;52.034;4.644;2024-01-30T10:26:58;13.35;;;3.00;;
69511;SDS011;70777;52.034;4.644;2024-01-30T10:29:24;10.18;;;2.58;;
69511;SDS011;70777;52.034;4.644;2024-01-30T10:31:59;13.82;;;3.75;;
69511;SDS011;70777;52.034;4.644;2024-01-30T10:34:28;8.77;;;2.65;;
69511;SDS011;70777;52.034;4.644;2024-01-30T10:37:11;8.43;;;2.75;;
69511;SDS011;70777;52.034;4.644;2024-01-30T10:39:43;7.88;;;1.90;;
69511;SDS011;70777;52.034;4.644;2024-01-30T10:42:13;6.03;;;2.38;;
69511;SDS011;70777;52.034;4.644;2024-01-30T10:47:11;5.95;;;2.50;;
69511;SDS011;70777;52.034;4.644;2024-01-30T10:49:38;6.00;;;2.75;;
69511;SDS011;70777;52.034;4.644;2024-01-30T10:52:05;9.90;;;2.67;;
69511;SDS011;70777;52.034;4.644;2024-01-30T10:54:31;13.75;;;3.47;;
69511;SDS011;70777;52.034;4.644;2024-01-30T10:56:58;10.27;;;2.85;;
69511;SDS011;70777;52.034;4.644;2024-01-30T10:59:28;10.65;;;3.05;;
69511;SDS011;70777;52.034;4.644;2024-01-30T11:01:56;9.32;;;3.40;;
69511;SDS011;70777;52.034;4.644;2024-01-30T11:04:22;5.37;;;2.60;;
69511;SDS011;70777;52.034;4.644;2024-01-30T11:06:49;9.32;;;2.58;;
69511;SDS011;70777;52.034;4.644;2024-01-30T11:09:16;12.90;;;2.50;;
69511;SDS011;70777;52.034;4.644;2024-01-30T11:11:52;6.53;;;2.50;;
69511;SDS011;70777;52.034;4.644;2024-01-30T11:14:29;6.47;;;2.20;;
69511;SDS011;70777;52.034;4.644;2024-01-30T11:16:58;5.18;;;1.48;;
69511;SDS011;70777;52.034;4.644;2024-01-30T11:19:25;6.25;;;1.40;;
69511;SDS011;70777;52.034;4.644;2024-01-30T11:21:52;4.22;;;1.05;;
69511;SDS011;70777;52.034;4.644;2024-01-30T11:24:22;4.25;;;1.00;;
69511;SDS011;70777;52.034;4.644;2024-01-30T11:26:57;7.75;;;1.25;;
69511;SDS011;70777;52.034;4.644;2024-01-30T11:29:29;6.00;;;1.17;;
69511;SDS011;70777;52.034;4.644;2024-01-30T11:31:56;5.40;;;1.05;;
69511;SDS011;70777;52.034;4.644;2024-01-30T11:34:22;4.28;;;0.93;;
69511;SDS011;70777;52.034;4.644;2024-01-30T11:36:51;7.30;;;1.00;;
69511;SDS011;70777;52.034;4.644;2024-01-30T11:39:20;6.70;;;1.30;;
69511;SDS011;70777;52.034;4.644;2024-01-30T11:41:46;3.90;;;1.15;;
69511;SDS011;70777;52.034;4.644;2024-01-30T11:44:13;4.95;;;1.20;;
69511;SDS011;70777;52.034;4.644;2024-01-30T11:46:40;8.00;;;1.40;;
69511;SDS011;70777;52.034;4.644;2024-01-30T11:49:05;6.57;;;1.40;;
69511;SDS011;70777;52.034;4.644;2024-01-30T11:51:31;5.22;;;1.05;;
69511;SDS011;70777;52.034;4.644;2024-01-30T11:53:57;3.58;;;1.35;;
69511;SDS011;70777;52.034;4.644;2024-01-30T11:56:23;7.55;;;1.77;;
69511;SDS011;70777;52.034;4.644;2024-01-30T11:58:50;6.22;;;1.30;;
69511;SDS011;70777;52.034;4.644;2024-01-30T12:01:17;6.78;;;1.27;;
69511;SDS011;70777;52.034;4.644;2024-01-30T12:03:42;6.93;;;1.30;;
69511;SDS011;70777;52.034;4.644;2024-01-30T12:06:15;4.45;;;1.20;;
69511;SDS011;70777;52.034;4.644;2024-01-30T12:08:40;5.53;;;1.27;;
69511;SDS011;70777;52.034;4.644;2024-01-30T12:11:06;7.10;;;1.30;;
69511;SDS011;70777;52.034;4.644;2024-01-30T12:13:32;10.73;;;1.40;;
69511;SDS011;70777;52.034;4.644;2024-01-30T12:15:57;5.07;;;1.13;;
69511;SDS011;70777;52.034;4.644;2024-01-30T12:18:23;2.83;;;0.93;;
69511;SDS011;70777;52.034;4.644;2024-01-30T12:20:58;8.13;;;1.60;;
69511;SDS011;70777;52.034;4.644;2024-01-30T12:23:24;6.67;;;1.40;;
69511;SDS011;70777;52.034;4.644;2024-01-30T12:25:51;7.53;;;1.50;;
69511;SDS011;70777;52.034;4.644;2024-01-30T12:28:17;9.20;;;1.35;;
69511;SDS011;70777;52.034;4.644;2024-01-30T12:30:42;6.50;;;1.27;;
69511;SDS011;70777;52.034;4.644;2024-01-30T12:33:08;4.93;;;1.30;;
69511;SDS011;70777;52.034;4.644;2024-01-30T12:35:35;7.57;;;1.45;;
69511;SDS011;70777;52.034;4.644;2024-01-30T12:38:00;7.30;;;1.50;;
69511;SDS011;70777;52.034;4.644;2024-01-30T12:40:26;6.43;;;1.25;;
69511;SDS011;70777;52.034;4.644;2024-01-30T12:42:51;6.63;;;1.88;;
69511;SDS011;70777;52.034;4.644;2024-01-30T12:45:17;5.03;;;1.50;;
69511;SDS011;70777;52.034;4.644;2024-01-30T12:47:47;7.20;;;1.60;;
69511;SDS011;70777;52.034;4.644;2024-01-30T12:50:13;10.82;;;1.67;;
69511;SDS011;70777;52.034;4.644;2024-01-30T12:52:40;9.50;;;1.90;;
69511;SDS011;70777;52.034;4.644;2024-01-30T12:55:07;5.72;;;2.10;;
69511;SDS011;70777;52.034;4.644;2024-01-30T12:57:32;8.43;;;2.10;;
69511;SDS011;70777;52.034;4.644;2024-01-30T12:59:58;4.25;;;1.60;;
69511;SDS011;70777;52.034;4.644;2024-01-30T13:02:23;9.80;;;1.90;;
69511;SDS011;70777;52.034;4.644;2024-01-30T13:04:49;8.27;;;2.22;;
69511;SDS011;70777;52.034;4.644;2024-01-30T13:07:14;10.60;;;2.70;;
69511;SDS011;70777;52.034;4.644;2024-01-30T13:09:40;8.13;;;1.95;;
69511;SDS011;70777;52.034;4.644;2024-01-30T13:12:05;7.43;;;2.78;;
69511;SDS011;70777;52.034;4.644;2024-01-30T13:14:31;11.27;;;2.30;;
69511;SDS011;70777;52.034;4.644;2024-01-30T13:16:57;8.45;;;2.28;;
69511;SDS011;70777;52.034;4.644;2024-01-30T13:19:22;9.18;;;3.33;;
69511;SDS011;70777;52.034;4.644;2024-01-30T13:21:48;9.60;;;2.42;;
69511;SDS011;70777;52.034;4.644;2024-01-30T13:24:13;13.63;;;2.00;;
69511;SDS011;70777;52.034;4.644;2024-01-30T13:26:39;7.35;;;2.70;;
69511;SDS011;70777;52.034;4.644;2024-01-30T13:29:05;13.20;;;2.17;;
69511;SDS011;70777;52.034;4.644;2024-01-30T13:31:30;10.85;;;2.78;;
69511;SDS011;70777;52.034;4.644;2024-01-30T13:33:56;12.23;;;3.15;;
69511;SDS011;70777;52.034;4.644;2024-01-30T13:36:21;8.70;;;1.92;;
69511;SDS011;70777;52.034;4.644;2024-01-30T13:38:47;7.47;;;1.95;;
69511;SDS011;70777;52.034;4.644;2024-01-30T13:41:12;5.63;;;2.58;;
69511;SDS011;70777;52.034;4.644;2024-01-30T13:43:38;7.93;;;2.03;;
69511;SDS011;70777;52.034;4.644;2024-01-30T13:46:03;6.03;;;1.75;;
69511;SDS011;70777;52.034;4.644;2024-01-30T13:48:29;7.18;;;2.28;;
69511;SDS011;70777;52.034;4.644;2024-01-30T13:50:55;2.90;;;1.92;;
69511;SDS011;70777;52.034;4.644;2024-01-30T13:53:20;9.75;;;2.60;;
69511;SDS011;70777;52.034;4.644;2024-01-30T13:55:46;5.78;;;1.90;;
69511;SDS011;70777;52.034;4.644;2024-01-30T13:58:12;6.05;;;2.20;;
69511;SDS011;70777;52.034;4.644;2024-01-30T14:00:37;5.05;;;2.00;;
69511;SDS011;70777;52.034;4.644;2024-01-30T14:03:03;7.50;;;2.30;;
69511;SDS011;70777;52.034;4.644;2024-01-30T14:05:29;11.35;;;2.58;;
69511;SDS011;70777;52.034;4.644;2024-01-30T14:07:55;6.10;;;2.65;;
69511;SDS011;70777;52.034;4.644;2024-01-30T14:10:21;4.57;;;2.33;;
69511;SDS011;70777;52.034;4.644;2024-01-30T14:12:46;12.80;;;3.30;;
69511;SDS011;70777;52.034;4.644;2024-01-30T14:15:15;9.18;;;2.97;;
69511;SDS011;70777;52.034;4.644;2024-01-30T14:17:43;6.40;;;3.30;;
69511;SDS011;70777;52.034;4.644;2024-01-30T14:20:10;7.88;;;2.30;;
69511;SDS011;70777;52.034;4.644;2024-01-30T14:22:35;8.35;;;2.80;;
69511;SDS011;70777;52.034;4.644;2024-01-30T14:25:01;8.70;;;2.95;;
69511;SDS011;70777;52.034;4.644;2024-01-30T14:29:55;6.50;;;2.38;;
69511;SDS011;70777;52.034;4.644;2024-01-30T14:32:21;6.80;;;2.70;;
69511;SDS011;70777;52.034;4.644;2024-01-30T14:34:46;8.25;;;2.67;;
69511;SDS011;70777;52.034;4.644;2024-01-30T14:37:11;9.25;;;2.60;;